sensor_id;sensor_type;location;lat;lon;timestamp;temperature;humidity
7564;DHT22;3823;53.586;10.040;2022-10-16T00:01:38;15.30;6.00
7564;DHT22;3823;53.586;10.040;2022-10-16T00:04:03;15.30;3.30
7564;DHT22;3823;53.586;10.040;2022-10-16T00:06:30;15.30;1.00
7564;DHT22;3823;53.586;10.040;2022-10-16T00:08:56;15.40;1.00
7564;DHT22;3823;53.586;10.040;2022-10-16T00:11:28;15.40;1.00
7564;DHT22;3823;53.586;10.040;2022-10-16T00:13:59;15.40;1.00
7564;DHT22;3823;53.586;10.040;2022-10-16T00:16:26;15.30;1.00
7564;DHT22;3823;53.586;10.040;2022-10-16T00:18:51;15.30;1.00
7564;DHT22;3823;53.586;10.040;2022-10-16T00:21:23;15.30;1.00
7564;DHT22;3823;53.586;10.040;2022-10-16T00:23:56;15.30;1.00
7564;DHT22;3823;53.586;10.040;2022-10-16T00:26:22;15.30;1.00
7564;DHT22;3823;53.586;10.040;2022-10-16T00:28:50;15.30;1.00
7564;DHT22;3823;53.586;10.040;2022-10-16T00:31:16;15.40;1.00
7564;DHT22;3823;53.586;10.040;2022-10-16T00:33:43;15.40;1.00
7564;DHT22;3823;53.586;10.040;2022-10-16T00:36:11;15.30;1.00
7564;DHT22;3823;53.586;10.040;2022-10-16T00:38:37;15.40;1.00
7564;DHT22;3823;53.586;10.040;2022-10-16T00:41:04;15.30;1.00
7564;DHT22;3823;53.586;10.040;2022-10-16T00:45:59;15.30;1.00
7564;DHT22;3823;53.586;10.040;2022-10-16T00:48:25;15.40;1.00
7564;DHT22;3823;53.586;10.040;2022-10-16T00:50:52;15.40;1.00
7564;DHT22;3823;53.586;10.040;2022-10-16T00:53:17;15.40;1.00
7564;DHT22;3823;53.586;10.040;2022-10-16T00:55:43;15.40;1.00
7564;DHT22;3823;53.586;10.040;2022-10-16T00:58:09;15.40;1.00
7564;DHT22;3823;53.586;10.040;2022-10-16T01:00:35;15.40;1.00
7564;DHT22;3823;53.586;10.040;2022-10-16T01:03:01;15.50;1.00
7564;DHT22;3823;53.586;10.040;2022-10-16T01:05:38;15.40;1.00
7564;DHT22;3823;53.586;10.040;2022-10-16T01:08:08;15.40;1.00
7564;DHT22;3823;53.586;10.040;2022-10-16T01:10:39;15.50;1.00
7564;DHT22;3823;53.586;10.040;2022-10-16T01:13:08;15.40;1.00
7564;DHT22;3823;53.586;10.040;2022-10-16T01:15:52;15.40;1.00
7564;DHT22;3823;53.586;10.040;2022-10-16T01:18:44;15.40;1.00
7564;DHT22;3823;53.586;10.040;2022-10-16T01:21:17;15.30;1.00
7564;DHT22;3823;53.586;10.040;2022-10-16T01:27:02;15.30;1.00
7564;DHT22;3823;53.586;10.040;2022-10-16T01:29:45;15.40;1.00
7564;DHT22;3823;53.586;10.040;2022-10-16T01:32:17;15.30;1.00
7564;DHT22;3823;53.586;10.040;2022-10-16T01:34:50;15.20;1.00
7564;DHT22;3823;53.586;10.040;2022-10-16T01:37:51;15.30;1.00
7564;DHT22;3823;53.586;10.040;2022-10-16T01:40:19;15.20;1.00
7564;DHT22;3823;53.586;10.040;2022-10-16T01:42:53;15.20;1.00
7564;DHT22;3823;53.586;10.040;2022-10-16T01:45:19;15.20;1.00
7564;DHT22;3823;53.586;10.040;2022-10-16T01:47:46;15.10;1.00
7564;DHT22;3823;53.586;10.040;2022-10-16T01:50:15;15.00;1.00
7564;DHT22;3823;53.586;10.040;2022-10-16T01:52:45;15.10;1.00
7564;DHT22;3823;53.586;10.040;2022-10-16T01:55:14;15.00;1.00
7564;DHT22;3823;53.586;10.040;2022-10-16T01:57:44;15.00;1.00
7564;DHT22;3823;53.586;10.040;2022-10-16T02:00:13;15.00;1.00
7564;DHT22;3823;53.586;10.040;2022-10-16T02:02:42;14.90;1.00
7564;DHT22;3823;53.586;10.040;2022-10-16T02:05:20;14.90;1.00
7564;DHT22;3823;53.586;10.040;2022-10-16T02:07:48;14.90;1.00
7564;DHT22;3823;53.586;10.040;2022-10-16T02:10:14;15.00;1.00
7564;DHT22;3823;53.586;10.040;2022-10-16T02:12:44;15.00;1.00
7564;DHT22;3823;53.586;10.040;2022-10-16T02:15:11;15.00;1.00
7564;DHT22;3823;53.586;10.040;2022-10-16T02:17:36;15.00;1.00
7564;DHT22;3823;53.586;10.040;2022-10-16T02:20:03;14.90;1.00
7564;DHT22;3823;53.586;10.040;2022-10-16T02:22:38;14.90;1.00
7564;DHT22;3823;53.586;10.040;2022-10-16T02:25:10;14.90;1.00
7564;DHT22;3823;53.586;10.040;2022-10-16T02:30:30;14.90;1.00
7564;DHT22;3823;53.586;10.040;2022-10-16T02:32:59;14.90;1.00
7564;DHT22;3823;53.586;10.040;2022-10-16T02:35:26;14.90;1.00
7564;DHT22;3823;53.586;10.040;2022-10-16T02:37:53;14.80;1.00
7564;DHT22;3823;53.586;10.040;2022-10-16T02:40:20;14.80;1.00
7564;DHT22;3823;53.586;10.040;2022-10-16T02:42:50;14.80;1.00
7564;DHT22;3823;53.586;10.040;2022-10-16T02:45:16;14.80;1.00
7564;DHT22;3823;53.586;10.040;2022-10-16T02:47:42;14.80;1.00
7564;DHT22;3823;53.586;10.040;2022-10-16T02:50:08;14.80;1.00
7564;DHT22;3823;53.586;10.040;2022-10-16T02:52:33;14.70;1.00
7564;DHT22;3823;53.586;10.040;2022-10-16T02:54:59;14.80;1.00
7564;DHT22;3823;53.586;10.040;2022-10-16T02:57:24;14.70;1.00
7564;DHT22;3823;53.586;10.040;2022-10-16T02:59:50;14.60;1.00
7564;DHT22;3823;53.586;10.040;2022-10-16T03:02:15;14.60;1.00
7564;DHT22;3823;53.586;10.040;2022-10-16T03:04:41;14.60;1.00
7564;DHT22;3823;53.586;10.040;2022-10-16T03:07:06;14.50;1.00
7564;DHT22;3823;53.586;10.040;2022-10-16T03:09:33;14.50;1.00
7564;DHT22;3823;53.586;10.040;2022-10-16T03:11:58;14.50;1.00
7564;DHT22;3823;53.586;10.040;2022-10-16T03:14:24;14.50;1.00
7564;DHT22;3823;53.586;10.040;2022-10-16T03:16:49;14.40;1.00
7564;DHT22;3823;53.586;10.040;2022-10-16T03:19:16;14.40;1.00
7564;DHT22;3823;53.586;10.040;2022-10-16T03:21:42;14.40;1.00
7564;DHT22;3823;53.586;10.040;2022-10-16T03:24:08;14.30;1.00
7564;DHT22;3823;53.586;10.040;2022-10-16T03:26:33;14.30;1.00
7564;DHT22;3823;53.586;10.040;2022-10-16T03:28:59;14.20;1.00
7564;DHT22;3823;53.586;10.040;2022-10-16T03:31:24;14.20;1.00
7564;DHT22;3823;53.586;10.040;2022-10-16T03:33:50;14.20;1.00
7564;DHT22;3823;53.586;10.040;2022-10-16T03:36:15;14.10;1.00
7564;DHT22;3823;53.586;10.040;2022-10-16T03:38:41;14.00;1.00
7564;DHT22;3823;53.586;10.040;2022-10-16T03:41:07;14.00;1.00
7564;DHT22;3823;53.586;10.040;2022-10-16T03:43:33;13.90;1.00
7564;DHT22;3823;53.586;10.040;2022-10-16T03:45:58;13.90;1.00
7564;DHT22;3823;53.586;10.040;2022-10-16T03:48:24;13.90;1.00
7564;DHT22;3823;53.586;10.040;2022-10-16T03:50:50;14.00;1.00
7564;DHT22;3823;53.586;10.040;2022-10-16T03:53:16;14.00;1.00
7564;DHT22;3823;53.586;10.040;2022-10-16T03:55:42;14.00;1.00
7564;DHT22;3823;53.586;10.040;2022-10-16T03:58:08;13.90;1.00
7564;DHT22;3823;53.586;10.040;2022-10-16T04:00:34;13.90;1.00
7564;DHT22;3823;53.586;10.040;2022-10-16T04:03:00;13.90;1.00
7564;DHT22;3823;53.586;10.040;2022-10-16T04:05:26;13.90;1.00
7564;DHT22;3823;53.586;10.040;2022-10-16T04:07:52;14.00;1.00
7564;DHT22;3823;53.586;10.040;2022-10-16T04:10:17;14.00;1.00
7564;DHT22;3823;53.586;10.040;2022-10-16T04:12:44;14.00;1.00
7564;DHT22;3823;53.586;10.040;2022-10-16T04:15:10;14.00;1.00
7564;DHT22;3823;53.586;10.040;2022-10-16T04:17:35;14.00;1.00
7564;DHT22;3823;53.586;10.040;2022-10-16T04:20:01;14.00;1.00
7564;DHT22;3823;53.586;10.040;2022-10-16T04:22:26;14.10;1.00
7564;DHT22;3823;53.586;10.040;2022-10-16T04:24:52;14.10;1.00
7564;DHT22;3823;53.586;10.040;2022-10-16T04:27:17;14.00;1.00
7564;DHT22;3823;53.586;10.040;2022-10-16T04:29:43;14.00;1.00
7564;DHT22;3823;53.586;10.040;2022-10-16T04:32:09;14.10;1.00
7564;DHT22;3823;53.586;10.040;2022-10-16T04:34:34;14.00;1.00
7564;DHT22;3823;53.586;10.040;2022-10-16T04:37:00;14.20;1.00
7564;DHT22;3823;53.586;10.040;2022-10-16T04:39:26;14.20;1.00
7564;DHT22;3823;53.586;10.040;2022-10-16T04:41:51;14.10;1.00
7564;DHT22;3823;53.586;10.040;2022-10-16T04:44:17;14.10;1.00
7564;DHT22;3823;53.586;10.040;2022-10-16T04:46:42;14.10;1.00
7564;DHT22;3823;53.586;10.040;2022-10-16T04:49:09;14.10;1.00
7564;DHT22;3823;53.586;10.040;2022-10-16T04:51:35;14.00;1.00
7564;DHT22;3823;53.586;10.040;2022-10-16T04:54:01;14.00;1.00
7564;DHT22;3823;53.586;10.040;2022-10-16T04:56:26;13.90;1.00
7564;DHT22;3823;53.586;10.040;2022-10-16T04:58:52;14.00;1.00
7564;DHT22;3823;53.586;10.040;2022-10-16T05:01:18;13.90;1.00
7564;DHT22;3823;53.586;10.040;2022-10-16T05:03:43;14.00;1.00
7564;DHT22;3823;53.586;10.040;2022-10-16T05:06:09;14.00;1.00
7564;DHT22;3823;53.586;10.040;2022-10-16T05:08:35;14.00;1.00
7564;DHT22;3823;53.586;10.040;2022-10-16T05:11:00;13.90;1.00
7564;DHT22;3823;53.586;10.040;2022-10-16T05:13:26;13.90;1.00
7564;DHT22;3823;53.586;10.040;2022-10-16T05:15:52;13.90;1.00
7564;DHT22;3823;53.586;10.040;2022-10-16T05:18:18;14.00;1.00
7564;DHT22;3823;53.586;10.040;2022-10-16T05:20:43;14.00;1.00
7564;DHT22;3823;53.586;10.040;2022-10-16T05:23:09;14.00;1.00
7564;DHT22;3823;53.586;10.040;2022-10-16T05:25:37;14.00;1.00
7564;DHT22;3823;53.586;10.040;2022-10-16T05:28:03;14.00;1.00
7564;DHT22;3823;53.586;10.040;2022-10-16T05:30:29;14.00;1.00
7564;DHT22;3823;53.586;10.040;2022-10-16T05:32:54;14.00;1.00
7564;DHT22;3823;53.586;10.040;2022-10-16T05:35:20;14.00;1.00
7564;DHT22;3823;53.586;10.040;2022-10-16T05:37:46;14.00;1.00
7564;DHT22;3823;53.586;10.040;2022-10-16T05:40:13;14.00;1.00
7564;DHT22;3823;53.586;10.040;2022-10-16T05:42:39;14.00;1.00
7564;DHT22;3823;53.586;10.040;2022-10-16T05:45:06;14.00;1.00
7564;DHT22;3823;53.586;10.040;2022-10-16T05:47:33;14.00;1.00
7564;DHT22;3823;53.586;10.040;2022-10-16T05:49:59;14.00;1.00
7564;DHT22;3823;53.586;10.040;2022-10-16T05:52:24;14.00;1.00
7564;DHT22;3823;53.586;10.040;2022-10-16T05:54:51;14.00;1.00
7564;DHT22;3823;53.586;10.040;2022-10-16T05:57:17;14.00;1.00
7564;DHT22;3823;53.586;10.040;2022-10-16T05:59:42;13.90;1.00
7564;DHT22;3823;53.586;10.040;2022-10-16T06:02:12;14.00;1.00
7564;DHT22;3823;53.586;10.040;2022-10-16T06:04:38;14.00;1.00
7564;DHT22;3823;53.586;10.040;2022-10-16T06:07:03;14.00;1.00
7564;DHT22;3823;53.586;10.040;2022-10-16T06:09:29;14.10;1.00
7564;DHT22;3823;53.586;10.040;2022-10-16T06:11:55;14.00;1.00
7564;DHT22;3823;53.586;10.040;2022-10-16T06:14:20;14.20;1.00
7564;DHT22;3823;53.586;10.040;2022-10-16T06:16:46;14.20;1.00
7564;DHT22;3823;53.586;10.040;2022-10-16T06:19:11;14.20;1.00
7564;DHT22;3823;53.586;10.040;2022-10-16T06:21:37;14.10;1.00
7564;DHT22;3823;53.586;10.040;2022-10-16T06:24:03;14.10;1.00
7564;DHT22;3823;53.586;10.040;2022-10-16T06:26:30;14.00;1.00
7564;DHT22;3823;53.586;10.040;2022-10-16T06:28:57;14.00;1.00
7564;DHT22;3823;53.586;10.040;2022-10-16T06:31:24;14.00;1.00
7564;DHT22;3823;53.586;10.040;2022-10-16T06:33:53;13.80;1.00
7564;DHT22;3823;53.586;10.040;2022-10-16T06:36:19;13.70;1.00
7564;DHT22;3823;53.586;10.040;2022-10-16T06:38:45;13.70;1.00
7564;DHT22;3823;53.586;10.040;2022-10-16T06:41:13;13.80;1.00
7564;DHT22;3823;53.586;10.040;2022-10-16T06:43:39;13.80;1.00
7564;DHT22;3823;53.586;10.040;2022-10-16T06:46:07;13.90;1.00
7564;DHT22;3823;53.586;10.040;2022-10-16T06:48:36;14.00;1.00
7564;DHT22;3823;53.586;10.040;2022-10-16T06:51:06;14.00;1.00
7564;DHT22;3823;53.586;10.040;2022-10-16T06:53:35;14.10;1.00
7564;DHT22;3823;53.586;10.040;2022-10-16T06:58:37;14.70;1.00
7564;DHT22;3823;53.586;10.040;2022-10-16T07:01:04;15.10;1.00
7564;DHT22;3823;53.586;10.040;2022-10-16T07:03:30;15.40;1.00
7564;DHT22;3823;53.586;10.040;2022-10-16T07:05:55;15.80;1.00
7564;DHT22;3823;53.586;10.040;2022-10-16T07:08:21;15.90;1.00
7564;DHT22;3823;53.586;10.040;2022-10-16T07:10:47;16.10;1.00
7564;DHT22;3823;53.586;10.040;2022-10-16T07:13:12;16.40;1.00
7564;DHT22;3823;53.586;10.040;2022-10-16T07:15:40;16.50;1.00
7564;DHT22;3823;53.586;10.040;2022-10-16T07:18:05;16.50;1.00
7564;DHT22;3823;53.586;10.040;2022-10-16T07:20:31;16.90;1.00
7564;DHT22;3823;53.586;10.040;2022-10-16T07:22:57;16.90;1.00
7564;DHT22;3823;53.586;10.040;2022-10-16T07:25:22;16.70;1.00
7564;DHT22;3823;53.586;10.040;2022-10-16T07:27:48;16.60;1.00
7564;DHT22;3823;53.586;10.040;2022-10-16T07:30:14;16.40;1.00
7564;DHT22;3823;53.586;10.040;2022-10-16T07:32:39;16.20;1.00
7564;DHT22;3823;53.586;10.040;2022-10-16T07:35:05;16.00;1.00
7564;DHT22;3823;53.586;10.040;2022-10-16T07:37:31;15.90;1.00
7564;DHT22;3823;53.586;10.040;2022-10-16T07:39:57;15.90;1.00
7564;DHT22;3823;53.586;10.040;2022-10-16T07:42:22;15.90;1.00
7564;DHT22;3823;53.586;10.040;2022-10-16T07:44:48;16.10;1.00
7564;DHT22;3823;53.586;10.040;2022-10-16T07:47:13;16.20;1.00
7564;DHT22;3823;53.586;10.040;2022-10-16T07:49:39;16.20;1.00
7564;DHT22;3823;53.586;10.040;2022-10-16T07:52:04;16.20;1.00
7564;DHT22;3823;53.586;10.040;2022-10-16T07:54:30;16.60;1.00
7564;DHT22;3823;53.586;10.040;2022-10-16T07:56:56;17.00;1.00
7564;DHT22;3823;53.586;10.040;2022-10-16T07:59:21;17.50;1.00
7564;DHT22;3823;53.586;10.040;2022-10-16T08:01:49;17.60;1.00
7564;DHT22;3823;53.586;10.040;2022-10-16T08:04:14;17.50;1.00
7564;DHT22;3823;53.586;10.040;2022-10-16T08:06:40;17.20;1.00
7564;DHT22;3823;53.586;10.040;2022-10-16T08:09:07;17.10;1.00
7564;DHT22;3823;53.586;10.040;2022-10-16T08:11:33;17.00;1.00
7564;DHT22;3823;53.586;10.040;2022-10-16T08:13:59;17.00;1.00
7564;DHT22;3823;53.586;10.040;2022-10-16T08:16:25;16.90;1.00
7564;DHT22;3823;53.586;10.040;2022-10-16T08:18:50;16.80;1.00
7564;DHT22;3823;53.586;10.040;2022-10-16T08:21:18;16.80;1.00
7564;DHT22;3823;53.586;10.040;2022-10-16T08:23:44;16.70;1.00
7564;DHT22;3823;53.586;10.040;2022-10-16T08:26:11;16.80;1.00
7564;DHT22;3823;53.586;10.040;2022-10-16T08:28:37;16.90;1.00
7564;DHT22;3823;53.586;10.040;2022-10-16T08:31:14;17.20;1.00
7564;DHT22;3823;53.586;10.040;2022-10-16T08:33:42;17.50;1.00
7564;DHT22;3823;53.586;10.040;2022-10-16T08:36:10;17.60;1.00
7564;DHT22;3823;53.586;10.040;2022-10-16T08:38:36;17.80;1.00
7564;DHT22;3823;53.586;10.040;2022-10-16T08:49:02;18.60;1.00
7564;DHT22;3823;53.586;10.040;2022-10-16T08:51:33;18.50;1.00
7564;DHT22;3823;53.586;10.040;2022-10-16T08:54:06;18.70;1.00
7564;DHT22;3823;53.586;10.040;2022-10-16T08:56:32;18.80;1.00
7564;DHT22;3823;53.586;10.040;2022-10-16T08:58:59;18.50;1.00
7564;DHT22;3823;53.586;10.040;2022-10-16T09:01:51;18.90;1.00
7564;DHT22;3823;53.586;10.040;2022-10-16T09:04:25;18.80;1.00
7564;DHT22;3823;53.586;10.040;2022-10-16T09:06:57;18.80;1.00
7564;DHT22;3823;53.586;10.040;2022-10-16T09:12:24;18.80;1.00
7564;DHT22;3823;53.586;10.040;2022-10-16T09:20:26;19.10;1.00
7564;DHT22;3823;53.586;10.040;2022-10-16T09:25:30;19.30;1.00
7564;DHT22;3823;53.586;10.040;2022-10-16T09:27:56;19.20;1.00
7564;DHT22;3823;53.586;10.040;2022-10-16T09:30:22;19.30;1.00
7564;DHT22;3823;53.586;10.040;2022-10-16T09:32:52;19.60;1.00
7564;DHT22;3823;53.586;10.040;2022-10-16T09:35:25;19.80;1.00
7564;DHT22;3823;53.586;10.040;2022-10-16T09:37:54;20.30;1.00
7564;DHT22;3823;53.586;10.040;2022-10-16T09:40:32;20.50;1.00
7564;DHT22;3823;53.586;10.040;2022-10-16T09:43:22;20.90;1.00
7564;DHT22;3823;53.586;10.040;2022-10-16T09:45:55;21.30;1.00
7564;DHT22;3823;53.586;10.040;2022-10-16T09:48:21;21.50;1.00
7564;DHT22;3823;53.586;10.040;2022-10-16T09:51:02;21.40;1.00
7564;DHT22;3823;53.586;10.040;2022-10-16T09:53:43;21.00;1.00
7564;DHT22;3823;53.586;10.040;2022-10-16T09:56:11;20.90;1.00
7564;DHT22;3823;53.586;10.040;2022-10-16T09:58:42;20.60;1.00
7564;DHT22;3823;53.586;10.040;2022-10-16T10:01:14;20.60;1.00
7564;DHT22;3823;53.586;10.040;2022-10-16T10:03:42;20.60;1.00
7564;DHT22;3823;53.586;10.040;2022-10-16T10:06:27;20.50;1.00
7564;DHT22;3823;53.586;10.040;2022-10-16T10:09:02;20.80;1.00
7564;DHT22;3823;53.586;10.040;2022-10-16T10:11:42;20.90;1.00
7564;DHT22;3823;53.586;10.040;2022-10-16T10:27:58;20.70;1.00
7564;DHT22;3823;53.586;10.040;2022-10-16T10:30:51;20.80;1.00
7564;DHT22;3823;53.586;10.040;2022-10-16T10:33:23;21.00;1.00
7564;DHT22;3823;53.586;10.040;2022-10-16T10:50:20;21.60;1.00
7564;DHT22;3823;53.586;10.040;2022-10-16T11:00:39;21.40;1.00
7564;DHT22;3823;53.586;10.040;2022-10-16T11:03:13;21.40;1.00
7564;DHT22;3823;53.586;10.040;2022-10-16T11:05:42;21.10;1.00
7564;DHT22;3823;53.586;10.040;2022-10-16T11:08:19;21.00;1.00
7564;DHT22;3823;53.586;10.040;2022-10-16T11:11:08;20.90;1.00
7564;DHT22;3823;53.586;10.040;2022-10-16T11:13:54;21.00;1.00
7564;DHT22;3823;53.586;10.040;2022-10-16T11:16:27;20.60;1.00
7564;DHT22;3823;53.586;10.040;2022-10-16T11:19:02;20.60;1.00
7564;DHT22;3823;53.586;10.040;2022-10-16T11:21:36;20.80;1.00
7564;DHT22;3823;53.586;10.040;2022-10-16T11:24:20;21.00;1.00
7564;DHT22;3823;53.586;10.040;2022-10-16T11:26:50;21.00;1.00
7564;DHT22;3823;53.586;10.040;2022-10-16T11:29:24;21.00;1.00
7564;DHT22;3823;53.586;10.040;2022-10-16T11:32:24;20.90;1.00
7564;DHT22;3823;53.586;10.040;2022-10-16T11:34:56;20.90;1.00
7564;DHT22;3823;53.586;10.040;2022-10-16T11:37:31;20.80;1.00
7564;DHT22;3823;53.586;10.040;2022-10-16T11:40:21;20.70;1.00
7564;DHT22;3823;53.586;10.040;2022-10-16T11:42:54;20.70;1.00
7564;DHT22;3823;53.586;10.040;2022-10-16T11:48:26;20.20;1.00
7564;DHT22;3823;53.586;10.040;2022-10-16T11:56:00;20.20;1.00
7564;DHT22;3823;53.586;10.040;2022-10-16T11:58:33;20.10;1.00
7564;DHT22;3823;53.586;10.040;2022-10-16T12:03:47;20.00;1.00
7564;DHT22;3823;53.586;10.040;2022-10-16T12:09:27;20.20;1.00
7564;DHT22;3823;53.586;10.040;2022-10-16T12:11:53;20.20;1.00
7564;DHT22;3823;53.586;10.040;2022-10-16T12:14:22;20.20;1.00
7564;DHT22;3823;53.586;10.040;2022-10-16T12:17:00;20.10;1.00
7564;DHT22;3823;53.586;10.040;2022-10-16T12:19:28;20.00;1.00
7564;DHT22;3823;53.586;10.040;2022-10-16T12:21:56;19.90;1.00
7564;DHT22;3823;53.586;10.040;2022-10-16T12:26:57;19.80;1.00
7564;DHT22;3823;53.586;10.040;2022-10-16T12:29:41;19.70;1.00
7564;DHT22;3823;53.586;10.040;2022-10-16T12:32:33;19.60;1.00
7564;DHT22;3823;53.586;10.040;2022-10-16T12:35:03;19.60;1.00
7564;DHT22;3823;53.586;10.040;2022-10-16T12:37:37;19.70;1.00
7564;DHT22;3823;53.586;10.040;2022-10-16T12:40:15;19.90;1.00
7564;DHT22;3823;53.586;10.040;2022-10-16T12:42:41;20.10;1.00
7564;DHT22;3823;53.586;10.040;2022-10-16T12:45:33;20.30;1.00
7564;DHT22;3823;53.586;10.040;2022-10-16T12:48:01;20.30;1.00
7564;DHT22;3823;53.586;10.040;2022-10-16T12:50:38;20.50;1.00
7564;DHT22;3823;53.586;10.040;2022-10-16T12:53:32;20.60;1.00
7564;DHT22;3823;53.586;10.040;2022-10-16T12:56:15;20.70;1.00
7564;DHT22;3823;53.586;10.040;2022-10-16T13:04:15;20.50;1.00
7564;DHT22;3823;53.586;10.040;2022-10-16T13:09:29;20.60;1.00
7564;DHT22;3823;53.586;10.040;2022-10-16T13:23:15;20.50;1.00
7564;DHT22;3823;53.586;10.040;2022-10-16T13:25:56;20.60;1.00
7564;DHT22;3823;53.586;10.040;2022-10-16T13:28:31;20.60;1.00
7564;DHT22;3823;53.586;10.040;2022-10-16T13:30:59;20.60;1.00
7564;DHT22;3823;53.586;10.040;2022-10-16T13:33:37;20.60;1.00
7564;DHT22;3823;53.586;10.040;2022-10-16T13:36:04;20.70;1.00
7564;DHT22;3823;53.586;10.040;2022-10-16T13:38:35;20.70;1.00
7564;DHT22;3823;53.586;10.040;2022-10-16T13:41:03;20.70;1.00
7564;DHT22;3823;53.586;10.040;2022-10-16T13:43:45;20.70;1.00
7564;DHT22;3823;53.586;10.040;2022-10-16T13:46:16;20.70;1.00
7564;DHT22;3823;53.586;10.040;2022-10-16T13:48:42;20.50;1.00
7564;DHT22;3823;53.586;10.040;2022-10-16T13:53:36;20.50;1.00
7564;DHT22;3823;53.586;10.040;2022-10-16T13:56:04;20.40;1.00
7564;DHT22;3823;53.586;10.040;2022-10-16T13:58:31;20.40;1.00
7564;DHT22;3823;53.586;10.040;2022-10-16T14:01:03;20.40;1.00
7564;DHT22;3823;53.586;10.040;2022-10-16T14:03:30;20.50;1.00
7564;DHT22;3823;53.586;10.040;2022-10-16T14:06:02;20.60;1.00
7564;DHT22;3823;53.586;10.040;2022-10-16T14:08:29;20.50;1.00
7564;DHT22;3823;53.586;10.040;2022-10-16T14:11:04;20.50;1.00
7564;DHT22;3823;53.586;10.040;2022-10-16T14:13:45;20.40;1.00
7564;DHT22;3823;53.586;10.040;2022-10-16T14:16:19;20.40;1.00
7564;DHT22;3823;53.586;10.040;2022-10-16T14:18:49;20.30;1.00
7564;DHT22;3823;53.586;10.040;2022-10-16T14:21:19;20.30;1.00
7564;DHT22;3823;53.586;10.040;2022-10-16T14:23:45;20.30;1.00
7564;DHT22;3823;53.586;10.040;2022-10-16T14:28:39;20.20;1.00
7564;DHT22;3823;53.586;10.040;2022-10-16T14:31:31;20.10;1.00
7564;DHT22;3823;53.586;10.040;2022-10-16T14:33:58;20.00;1.00
7564;DHT22;3823;53.586;10.040;2022-10-16T14:36:25;20.00;1.00
7564;DHT22;3823;53.586;10.040;2022-10-16T14:39:03;19.90;1.00
7564;DHT22;3823;53.586;10.040;2022-10-16T14:41:31;19.90;1.00
7564;DHT22;3823;53.586;10.040;2022-10-16T14:44:02;19.80;1.00
7564;DHT22;3823;53.586;10.040;2022-10-16T14:46:36;19.80;1.00
7564;DHT22;3823;53.586;10.040;2022-10-16T14:51:39;19.90;1.00
7564;DHT22;3823;53.586;10.040;2022-10-16T14:54:10;19.90;1.00
7564;DHT22;3823;53.586;10.040;2022-10-16T14:56:48;19.90;1.00
7564;DHT22;3823;53.586;10.040;2022-10-16T14:59:25;19.80;1.00
7564;DHT22;3823;53.586;10.040;2022-10-16T15:01:52;19.80;1.00
7564;DHT22;3823;53.586;10.040;2022-10-16T15:04:18;19.80;1.00
7564;DHT22;3823;53.586;10.040;2022-10-16T15:06:44;19.80;1.00
7564;DHT22;3823;53.586;10.040;2022-10-16T15:09:10;19.80;1.00
7564;DHT22;3823;53.586;10.040;2022-10-16T15:11:35;19.80;1.00
7564;DHT22;3823;53.586;10.040;2022-10-16T15:14:01;19.80;1.00
7564;DHT22;3823;53.586;10.040;2022-10-16T15:16:29;19.70;1.00
7564;DHT22;3823;53.586;10.040;2022-10-16T15:18:55;19.70;1.00
7564;DHT22;3823;53.586;10.040;2022-10-16T15:21:29;19.60;1.00
7564;DHT22;3823;53.586;10.040;2022-10-16T15:23:56;19.50;1.00
7564;DHT22;3823;53.586;10.040;2022-10-16T15:26:23;19.40;1.00
7564;DHT22;3823;53.586;10.040;2022-10-16T15:28:49;19.40;1.00
7564;DHT22;3823;53.586;10.040;2022-10-16T15:31:14;19.40;1.00
7564;DHT22;3823;53.586;10.040;2022-10-16T15:33:40;19.40;1.00
7564;DHT22;3823;53.586;10.040;2022-10-16T15:36:06;19.40;1.00
7564;DHT22;3823;53.586;10.040;2022-10-16T15:38:33;19.30;1.00
7564;DHT22;3823;53.586;10.040;2022-10-16T15:40:58;19.30;1.00
7564;DHT22;3823;53.586;10.040;2022-10-16T15:43:24;19.10;1.00
7564;DHT22;3823;53.586;10.040;2022-10-16T15:46:02;19.00;1.00
7564;DHT22;3823;53.586;10.040;2022-10-16T15:48:29;18.90;1.00
7564;DHT22;3823;53.586;10.040;2022-10-16T15:50:55;18.90;1.00
7564;DHT22;3823;53.586;10.040;2022-10-16T15:53:21;18.80;1.00
7564;DHT22;3823;53.586;10.040;2022-10-16T15:55:46;18.80;1.00
7564;DHT22;3823;53.586;10.040;2022-10-16T15:58:12;18.80;1.00
7564;DHT22;3823;53.586;10.040;2022-10-16T16:00:38;18.70;1.00
7564;DHT22;3823;53.586;10.040;2022-10-16T16:03:03;18.70;1.00
7564;DHT22;3823;53.586;10.040;2022-10-16T16:05:29;18.60;1.00
7564;DHT22;3823;53.586;10.040;2022-10-16T16:07:54;18.70;1.00
7564;DHT22;3823;53.586;10.040;2022-10-16T16:10:21;18.60;1.00
7564;DHT22;3823;53.586;10.040;2022-10-16T16:12:47;18.50;1.00
7564;DHT22;3823;53.586;10.040;2022-10-16T16:15:17;18.50;1.00
7564;DHT22;3823;53.586;10.040;2022-10-16T16:17:43;18.50;1.00
7564;DHT22;3823;53.586;10.040;2022-10-16T16:20:10;18.50;1.00
7564;DHT22;3823;53.586;10.040;2022-10-16T16:22:35;18.40;1.00
7564;DHT22;3823;53.586;10.040;2022-10-16T16:25:01;18.40;1.00
7564;DHT22;3823;53.586;10.040;2022-10-16T16:27:27;18.50;1.00
7564;DHT22;3823;53.586;10.040;2022-10-16T16:29:55;18.50;1.00
7564;DHT22;3823;53.586;10.040;2022-10-16T16:32:20;18.50;1.00
7564;DHT22;3823;53.586;10.040;2022-10-16T16:34:46;18.50;1.00
7564;DHT22;3823;53.586;10.040;2022-10-16T16:37:12;18.40;1.00
7564;DHT22;3823;53.586;10.040;2022-10-16T16:39:37;18.40;1.00
7564;DHT22;3823;53.586;10.040;2022-10-16T16:42:03;18.40;1.00
7564;DHT22;3823;53.586;10.040;2022-10-16T16:44:30;18.30;1.00
7564;DHT22;3823;53.586;10.040;2022-10-16T16:46:59;18.30;1.00
7564;DHT22;3823;53.586;10.040;2022-10-16T16:49:30;18.20;1.00
7564;DHT22;3823;53.586;10.040;2022-10-16T16:51:56;18.10;1.00
7564;DHT22;3823;53.586;10.040;2022-10-16T16:54:21;18.10;1.00
7564;DHT22;3823;53.586;10.040;2022-10-16T16:56:47;18.10;1.00
7564;DHT22;3823;53.586;10.040;2022-10-16T16:59:18;18.00;1.00
7564;DHT22;3823;53.586;10.040;2022-10-16T17:01:45;17.90;1.00
7564;DHT22;3823;53.586;10.040;2022-10-16T17:04:11;17.90;1.00
7564;DHT22;3823;53.586;10.040;2022-10-16T17:06:37;17.90;1.00
7564;DHT22;3823;53.586;10.040;2022-10-16T17:09:04;17.70;1.00
7564;DHT22;3823;53.586;10.040;2022-10-16T17:11:30;17.60;1.00
7564;DHT22;3823;53.586;10.040;2022-10-16T17:13:57;17.60;1.00
7564;DHT22;3823;53.586;10.040;2022-10-16T17:16:26;17.60;1.00
7564;DHT22;3823;53.586;10.040;2022-10-16T17:18:52;17.50;1.00
7564;DHT22;3823;53.586;10.040;2022-10-16T17:21:18;17.50;1.00
7564;DHT22;3823;53.586;10.040;2022-10-16T17:23:44;17.50;1.00
7564;DHT22;3823;53.586;10.040;2022-10-16T17:26:12;17.50;1.00
7564;DHT22;3823;53.586;10.040;2022-10-16T17:28:39;17.50;1.00
7564;DHT22;3823;53.586;10.040;2022-10-16T17:31:16;17.50;1.00
7564;DHT22;3823;53.586;10.040;2022-10-16T17:33:42;17.50;1.00
7564;DHT22;3823;53.586;10.040;2022-10-16T17:36:08;17.60;1.00
7564;DHT22;3823;53.586;10.040;2022-10-16T17:38:35;17.60;1.00
7564;DHT22;3823;53.586;10.040;2022-10-16T17:41:14;17.50;1.00
7564;DHT22;3823;53.586;10.040;2022-10-16T17:43:41;17.40;1.00
7564;DHT22;3823;53.586;10.040;2022-10-16T17:46:08;17.40;1.00
7564;DHT22;3823;53.586;10.040;2022-10-16T17:48:38;17.40;1.00
7564;DHT22;3823;53.586;10.040;2022-10-16T17:51:06;17.30;1.00
7564;DHT22;3823;53.586;10.040;2022-10-16T17:53:33;17.40;1.00
7564;DHT22;3823;53.586;10.040;2022-10-16T17:56:06;17.30;1.00
7564;DHT22;3823;53.586;10.040;2022-10-16T17:58:32;17.30;1.00
7564;DHT22;3823;53.586;10.040;2022-10-16T18:00:58;17.40;1.00
7564;DHT22;3823;53.586;10.040;2022-10-16T18:03:24;17.30;1.00